sensor_id;sensor_type;location;lat;lon;timestamp;pressure;altitude;pressure_sealevel;temperature;humidity
39341;BME280;25059;52.132;21.062;2023-02-02T06:34:15;99087.63;;;2.48;100.00
39341;BME280;25059;52.132;21.062;2023-02-02T06:37:03;99080.72;;;2.48;100.00
39341;BME280;25059;52.132;21.062;2023-02-02T06:39:47;99084.84;;;2.55;100.00
39341;BME280;25059;52.132;21.062;2023-02-02T06:42:32;99081.44;;;2.53;100.00
39341;BME280;25059;52.132;21.062;2023-02-02T06:45:17;99088.25;;;2.57;100.00
39341;BME280;25059;52.132;21.062;2023-02-02T06:48:02;99083.06;;;2.57;100.00
39341;BME280;25059;52.132;21.062;2023-02-02T06:50:57;99074.41;;;2.57;100.00
39341;BME280;25059;52.132;21.062;2023-02-02T06:53:42;99083.81;;;2.61;100.00
39341;BME280;25059;52.132;21.062;2023-02-02T06:56:27;99076.00;;;2.63;100.00
39341;BME280;25059;52.132;21.062;2023-02-02T06:59:13;99087.22;;;2.63;100.00
39341;BME280;25059;52.132;21.062;2023-02-02T07:01:57;99077.34;;;2.45;100.00
39341;BME280;25059;52.132;21.062;2023-02-02T07:04:43;99069.88;;;2.33;100.00
39341;BME280;25059;52.132;21.062;2023-02-02T07:07:31;99063.13;;;2.27;100.00
39341;BME280;25059;52.132;21.062;2023-02-02T07:10:17;99069.06;;;2.31;100.00
39341;BME280;25059;52.132;21.062;2023-02-02T07:13:02;99065.56;;;2.33;100.00
39341;BME280;25059;52.132;21.062;2023-02-02T07:15:46;99063.00;;;2.32;100.00
39341;BME280;25059;52.132;21.062;2023-02-02T07:18:32;99058.66;;;2.32;100.00
39341;BME280;25059;52.132;21.062;2023-02-02T07:21:21;99064.78;;;2.30;100.00
39341;BME280;25059;52.132;21.062;2023-02-02T07:24:07;99069.97;;;2.30;100.00
39341;BME280;25059;52.132;21.062;2023-02-02T07:26:55;99068.91;;;2.37;100.00
39341;BME280;25059;52.132;21.062;2023-02-02T07:29:41;99071.34;;;2.43;100.00
39341;BME280;25059;52.132;21.062;2023-02-02T07:32:30;99068.09;;;2.35;100.00
39341;BME280;25059;52.132;21.062;2023-02-02T07:35:15;99067.44;;;2.26;100.00
39341;BME280;25059;52.132;21.062;2023-02-02T07:38:08;99062.28;;;2.26;100.00
39341;BME280;25059;52.132;21.062;2023-02-02T07:40:53;99071.38;;;2.41;100.00
39341;BME280;25059;52.132;21.062;2023-02-02T07:43:38;99063.66;;;2.40;100.00
39341;BME280;25059;52.132;21.062;2023-02-02T07:46:23;99060.41;;;2.32;100.00
39341;BME280;25059;52.132;21.062;2023-02-02T07:49:11;99067.13;;;2.39;100.00
39341;BME280;25059;52.132;21.062;2023-02-02T07:52:00;99064.63;;;2.36;100.00
39341;BME280;25059;52.132;21.062;2023-02-02T07:54:45;99057.94;;;2.27;100.00
39341;BME280;25059;52.132;21.062;2023-02-02T07:57:30;99059.56;;;2.31;100.00
39341;BME280;25059;52.132;21.062;2023-02-02T08:00:16;99060.16;;;2.41;100.00
39341;BME280;25059;52.132;21.062;2023-02-02T08:03:01;99064.50;;;2.40;100.00
39341;BME280;25059;52.132;21.062;2023-02-02T08:05:47;99070.38;;;2.47;100.00
39341;BME280;25059;52.132;21.062;2023-02-02T08:08:32;99066.13;;;2.44;100.00
39341;BME280;25059;52.132;21.062;2023-02-02T08:11:19;99067.94;;;2.41;100.00
39341;BME280;25059;52.132;21.062;2023-02-02T08:14:06;99067.69;;;2.50;100.00
39341;BME280;25059;52.132;21.062;2023-02-02T08:16:51;99070.66;;;2.36;100.00
39341;BME280;25059;52.132;21.062;2023-02-02T08:19:36;99064.81;;;2.28;100.00
39341;BME280;25059;52.132;21.062;2023-02-02T08:22:23;99076.00;;;2.30;100.00
39341;BME280;25059;52.132;21.062;2023-02-02T08:25:11;99072.81;;;2.20;100.00
39341;BME280;25059;52.132;21.062;2023-02-02T08:27:58;99068.66;;;2.13;100.00
39341;BME280;25059;52.132;21.062;2023-02-02T08:30:45;99069.59;;;2.11;100.00
39341;BME280;25059;52.132;21.062;2023-02-02T08:33:30;99073.34;;;1.99;100.00
39341;BME280;25059;52.132;21.062;2023-02-02T08:36:18;99078.69;;;1.93;100.00
39341;BME280;25059;52.132;21.062;2023-02-02T08:39:10;99078.78;;;1.88;100.00
39341;BME280;25059;52.132;21.062;2023-02-02T08:41:57;99083.13;;;1.88;100.00
39341;BME280;25059;52.132;21.062;2023-02-02T08:44:43;99083.16;;;1.86;100.00
39341;BME280;25059;52.132;21.062;2023-02-02T08:47:30;99084.63;;;1.97;100.00
39341;BME280;25059;52.132;21.062;2023-02-02T08:50:17;99086.22;;;2.02;100.00
39341;BME280;25059;52.132;21.062;2023-02-02T08:53:02;99078.28;;;2.08;100.00
39341;BME280;25059;52.132;21.062;2023-02-02T08:56:13;99088.16;;;1.94;100.00
39341;BME280;25059;52.132;21.062;2023-02-02T08:58:58;99082.78;;;2.02;100.00
39341;BME280;25059;52.132;21.062;2023-02-02T09:01:44;99086.19;;;2.04;100.00
39341;BME280;25059;52.132;21.062;2023-02-02T09:04:45;99088.59;;;2.11;100.00
39341;BME280;25059;52.132;21.062;2023-02-02T09:08:05;99097.84;;;2.21;100.00
39341;BME280;25059;52.132;21.062;2023-02-02T09:10:52;99091.78;;;2.21;100.00
39341;BME280;25059;52.132;21.062;2023-02-02T09:13:37;99096.63;;;2.35;100.00
39341;BME280;25059;52.132;21.062;2023-02-02T09:16:25;99095.34;;;2.51;100.00
39341;BME280;25059;52.132;21.062;2023-02-02T09:19:10;99092.97;;;2.42;100.00
39341;BME280;25059;52.132;21.062;2023-02-02T09:21:55;99095.91;;;2.62;100.00
39341;BME280;25059;52.132;21.062;2023-02-02T09:24:40;99095.47;;;2.77;100.00
39341;BME280;25059;52.132;21.062;2023-02-02T09:27:24;99096.38;;;2.76;100.00
39341;BME280;25059;52.132;21.062;2023-02-02T09:30:10;99098.19;;;2.73;100.00
39341;BME280;25059;52.132;21.062;2023-02-02T09:32:55;99105.78;;;2.80;100.00
39341;BME280;25059;52.132;21.062;2023-02-02T09:35:46;99106.50;;;2.85;100.00
39341;BME280;25059;52.132;21.062;2023-02-02T09:38:32;99103.13;;;2.82;100.00
39341;BME280;25059;52.132;21.062;2023-02-02T09:44:56;99117.03;;;2.79;100.00
39341;BME280;25059;52.132;21.062;2023-02-02T09:47:49;99116.25;;;2.77;100.00
39341;BME280;25059;52.132;21.062;2023-02-02T09:51:07;99115.72;;;2.65;100.00
39341;BME280;25059;52.132;21.062;2023-02-02T09:54:26;99126.09;;;2.65;100.00
39341;BME280;25059;52.132;21.062;2023-02-02T09:57:17;99131.53;;;2.55;100.00
39341;BME280;25059;52.132;21.062;2023-02-02T10:03:23;99139.78;;;2.37;100.00
39341;BME280;25059;52.132;21.062;2023-02-02T10:06:41;99144.03;;;2.40;100.00
39341;BME280;25059;52.132;21.062;2023-02-02T10:13:10;99149.34;;;2.35;100.00
39341;BME280;25059;52.132;21.062;2023-02-02T10:16:05;99152.06;;;2.31;100.00
39341;BME280;25059;52.132;21.062;2023-02-02T10:18:58;99158.81;;;2.36;100.00
39341;BME280;25059;52.132;21.062;2023-02-02T10:22:11;99165.56;;;2.43;100.00
39341;BME280;25059;52.132;21.062;2023-02-02T10:25:11;99165.28;;;2.54;100.00
39341;BME280;25059;52.132;21.062;2023-02-02T10:28:14;99174.66;;;2.59;100.00
39341;BME280;25059;52.132;21.062;2023-02-02T10:31:01;99178.75;;;2.68;100.00
39341;BME280;25059;52.132;21.062;2023-02-02T10:34:00;99180.56;;;2.65;100.00
39341;BME280;25059;52.132;21.062;2023-02-02T10:49:17;99192.53;;;3.03;100.00
39341;BME280;25059;52.132;21.062;2023-02-02T10:52:15;99205.13;;;2.85;100.00
39341;BME280;25059;52.132;21.062;2023-02-02T11:00:59;99207.13;;;2.74;100.00
39341;BME280;25059;52.132;21.062;2023-02-02T11:03:47;99212.06;;;2.85;100.00
39341;BME280;25059;52.132;21.062;2023-02-02T11:06:55;99220.72;;;2.84;100.00
39341;BME280;25059;52.132;21.062;2023-02-02T11:09:41;99225.03;;;2.85;100.00
39341;BME280;25059;52.132;21.062;2023-02-02T11:12:32;99225.88;;;2.85;100.00
39341;BME280;25059;52.132;21.062;2023-02-02T11:15:25;99237.78;;;2.94;100.00
39341;BME280;25059;52.132;21.062;2023-02-02T11:18:13;99244.13;;;3.15;100.00
39341;BME280;25059;52.132;21.062;2023-02-02T11:21:17;99250.75;;;2.94;100.00
39341;BME280;25059;52.132;21.062;2023-02-02T11:27:25;99246.34;;;2.64;100.00
39341;BME280;25059;52.132;21.062;2023-02-02T11:30:32;99249.78;;;2.64;100.00
39341;BME280;25059;52.132;21.062;2023-02-02T11:33:34;99261.09;;;2.62;100.00
39341;BME280;25059;52.132;21.062;2023-02-02T11:36:20;99271.13;;;2.40;100.00
39341;BME280;25059;52.132;21.062;2023-02-02T11:39:22;99280.09;;;2.25;100.00
39341;BME280;25059;52.132;21.062;2023-02-02T11:42:16;99278.44;;;2.22;100.00
39341;BME280;25059;52.132;21.062;2023-02-02T11:45:15;99279.16;;;2.29;100.00
39341;BME280;25059;52.132;21.062;2023-02-02T11:48:12;99281.41;;;2.43;100.00
39341;BME280;25059;52.132;21.062;2023-02-02T11:51:00;99282.16;;;2.48;100.00
39341;BME280;25059;52.132;21.062;2023-02-02T11:53:46;99288.84;;;2.58;100.00
39341;BME280;25059;52.132;21.062;2023-02-02T11:56:39;99286.13;;;2.63;100.00
39341;BME280;25059;52.132;21.062;2023-02-02T11:59:37;99294.44;;;2.77;100.00
39341;BME280;25059;52.132;21.062;2023-02-02T12:02:30;99296.66;;;2.92;100.00
39341;BME280;25059;52.132;21.062;2023-02-02T12:08:04;99303.78;;;2.84;100.00
39341;BME280;25059;52.132;21.062;2023-02-02T12:10:57;99308.81;;;2.90;100.00
39341;BME280;25059;52.132;21.062;2023-02-02T12:14:18;99309.25;;;3.07;100.00
39341;BME280;25059;52.132;21.062;2023-02-02T12:26:34;99334.00;;;3.20;100.00
39341;BME280;25059;52.132;21.062;2023-02-02T12:29:33;99329.94;;;3.10;100.00
39341;BME280;25059;52.132;21.062;2023-02-02T12:32:45;99325.84;;;3.02;100.00
39341;BME280;25059;52.132;21.062;2023-02-02T12:42:22;99355.56;;;2.88;100.00
39341;BME280;25059;52.132;21.062;2023-02-02T12:55:01;99384.66;;;2.66;100.00
39341;BME280;25059;52.132;21.062;2023-02-02T13:04:03;99396.91;;;2.59;100.00
39341;BME280;25059;52.132;21.062;2023-02-02T13:12:38;99436.47;;;2.29;100.00
39341;BME280;25059;52.132;21.062;2023-02-02T13:15:36;99438.97;;;2.33;100.00
39341;BME280;25059;52.132;21.062;2023-02-02T13:21:12;99459.50;;;2.44;100.00
39341;BME280;25059;52.132;21.062;2023-02-02T13:24:02;99455.19;;;2.43;100.00
39341;BME280;25059;52.132;21.062;2023-02-02T13:26:52;99469.53;;;2.61;100.00
39341;BME280;25059;52.132;21.062;2023-02-02T13:29:41;99473.06;;;2.56;100.00
39341;BME280;25059;52.132;21.062;2023-02-02T13:32:33;99488.72;;;2.52;100.00
39341;BME280;25059;52.132;21.062;2023-02-02T13:35:30;99490.44;;;2.53;100.00
39341;BME280;25059;52.132;21.062;2023-02-02T13:38:29;99484.44;;;2.51;100.00
39341;BME280;25059;52.132;21.062;2023-02-02T13:41:14;99498.31;;;2.48;100.00
39341;BME280;25059;52.132;21.062;2023-02-02T13:44:18;99490.59;;;2.45;100.00
39341;BME280;25059;52.132;21.062;2023-02-02T13:47:13;99501.84;;;2.44;100.00
39341;BME280;25059;52.132;21.062;2023-02-02T13:50:05;99513.03;;;2.48;100.00
39341;BME280;25059;52.132;21.062;2023-02-02T13:53:19;99517.06;;;2.61;100.00
39341;BME280;25059;52.132;21.062;2023-02-02T13:56:22;99522.81;;;2.77;100.00
39341;BME280;25059;52.132;21.062;2023-02-02T14:02:18;99528.75;;;3.22;100.00
39341;BME280;25059;52.132;21.062;2023-02-02T14:13:42;99519.50;;;10.25;100.00
39341;BME280;25059;52.132;21.062;2023-02-02T14:16:49;99530.44;;;8.89;100.00
39341;BME280;25059;52.132;21.062;2023-02-02T14:22:43;99563.09;;;4.72;100.00
39341;BME280;25059;52.132;21.062;2023-02-02T14:28:41;99580.00;;;3.52;100.00
39341;BME280;25059;52.132;21.062;2023-02-02T14:31:28;99591.09;;;3.22;100.00
39341;BME280;25059;52.132;21.062;2023-02-02T14:34:24;99601.91;;;3.01;100.00
39341;BME280;25059;52.132;21.062;2023-02-02T14:37:33;99601.22;;;2.92;100.00
39341;BME280;25059;52.132;21.062;2023-02-02T14:40:58;99608.16;;;2.92;100.00
39341;BME280;25059;52.132;21.062;2023-02-02T14:43:47;99621.88;;;2.99;100.00
39341;BME280;25059;52.132;21.062;2023-02-02T14:46:37;99620.66;;;3.15;100.00
39341;BME280;25059;52.132;21.062;2023-02-02T14:49:26;99625.75;;;3.19;100.00
39341;BME280;25059;52.132;21.062;2023-02-02T14:52:21;99631.75;;;3.23;100.00
39341;BME280;25059;52.132;21.062;2023-02-02T14:55:21;99640.47;;;3.20;100.00
39341;BME280;25059;52.132;21.062;2023-02-02T14:58:06;99655.38;;;3.11;100.00
39341;BME280;25059;52.132;21.062;2023-02-02T15:04:23;99670.53;;;2.87;100.00
39341;BME280;25059;52.132;21.062;2023-02-02T15:10:09;99689.59;;;2.86;100.00
39341;BME280;25059;52.132;21.062;2023-02-02T15:13:06;99693.06;;;2.85;100.00
39341;BME280;25059;52.132;21.062;2023-02-02T15:16:10;99690.53;;;2.82;100.00
39341;BME280;25059;52.132;21.062;2023-02-02T15:19:05;99708.91;;;2.72;100.00
39341;BME280;25059;52.132;21.062;2023-02-02T15:21:52;99717.66;;;2.65;100.00
39341;BME280;25059;52.132;21.062;2023-02-02T15:24:38;99723.94;;;2.51;100.00
39341;BME280;25059;52.132;21.062;2023-02-02T15:27:23;99732.56;;;2.53;100.00
39341;BME280;25059;52.132;21.062;2023-02-02T15:30:11;99747.31;;;2.50;100.00
39341;BME280;25059;52.132;21.062;2023-02-02T15:32:57;99769.84;;;2.46;100.00
39341;BME280;25059;52.132;21.062;2023-02-02T15:35:42;99796.84;;;2.35;100.00
39341;BME280;25059;52.132;21.062;2023-02-02T15:38:32;99785.94;;;2.10;100.00
39341;BME280;25059;52.132;21.062;2023-02-02T15:41:22;99800.13;;;1.83;100.00
39341;BME280;25059;52.132;21.062;2023-02-02T15:44:27;99843.72;;;1.46;100.00
39341;BME280;25059;52.132;21.062;2023-02-02T15:47:19;99831.16;;;1.06;100.00
39341;BME280;25059;52.132;21.062;2023-02-02T15:50:22;99821.91;;;0.79;100.00
39341;BME280;25059;52.132;21.062;2023-02-02T15:53:16;99839.22;;;0.71;100.00
39341;BME280;25059;52.132;21.062;2023-02-02T15:59:25;99857.16;;;0.92;100.00
39341;BME280;25059;52.132;21.062;2023-02-02T16:04:55;99863.06;;;1.10;100.00
39341;BME280;25059;52.132;21.062;2023-02-02T16:07:41;99865.69;;;1.05;100.00
39341;BME280;25059;52.132;21.062;2023-02-02T16:10:25;99871.75;;;1.03;100.00
39341;BME280;25059;52.132;21.062;2023-02-02T16:13:21;99889.03;;;0.99;100.00
39341;BME280;25059;52.132;21.062;2023-02-02T16:16:29;99891.75;;;0.79;100.00
39341;BME280;25059;52.132;21.062;2023-02-02T16:19:19;99900.47;;;0.68;100.00
39341;BME280;25059;52.132;21.062;2023-02-02T16:22:09;99903.00;;;0.77;100.00
39341;BME280;25059;52.132;21.062;2023-02-02T16:25:00;99905.56;;;0.77;100.00
39341;BME280;25059;52.132;21.062;2023-02-02T16:27:47;99907.31;;;0.73;100.00
39341;BME280;25059;52.132;21.062;2023-02-02T16:30:36;99919.38;;;0.79;100.00
39341;BME280;25059;52.132;21.062;2023-02-02T16:33:41;99922.81;;;0.81;100.00
39341;BME280;25059;52.132;21.062;2023-02-02T16:36:28;99946.06;;;0.84;100.00
39341;BME280;25059;52.132;21.062;2023-02-02T16:39:20;99950.34;;;0.91;100.00
39341;BME280;25059;52.132;21.062;2023-02-02T16:42:20;99934.78;;;0.92;100.00
39341;BME280;25059;52.132;21.062;2023-02-02T16:45:07;99941.66;;;0.98;100.00
39341;BME280;25059;52.132;21.062;2023-02-02T17:17:36;100009.59;;;1.31;100.00
39341;BME280;25059;52.132;21.062;2023-02-02T17:20:24;100017.41;;;1.24;100.00
39341;BME280;25059;52.132;21.062;2023-02-02T17:23:15;100021.72;;;1.24;100.00
39341;BME280;25059;52.132;21.062;2023-02-02T17:26:02;100010.56;;;1.17;100.00
39341;BME280;25059;52.132;21.062;2023-02-02T17:28:57;100024.34;;;1.18;100.00
39341;BME280;25059;52.132;21.062;2023-02-02T17:31:43;100034.75;;;1.13;100.00
39341;BME280;25059;52.132;21.062;2023-02-02T17:34:55;100043.38;;;1.12;100.00
39341;BME280;25059;52.132;21.062;2023-02-02T17:37:39;100054.59;;;1.11;100.00
39341;BME280;25059;52.132;21.062;2023-02-02T17:40:24;100057.19;;;1.08;100.00
39341;BME280;25059;52.132;21.062;2023-02-02T17:43:10;100066.69;;;1.11;100.00
39341;BME280;25059;52.132;21.062;2023-02-02T17:45:55;100080.50;;;1.07;100.00
39341;BME280;25059;52.132;21.062;2023-02-02T17:48:40;100076.19;;;1.09;100.00
39341;BME280;25059;52.132;21.062;2023-02-02T17:51:25;100078.75;;;1.12;100.00
39341;BME280;25059;52.132;21.062;2023-02-02T17:54:11;100090.81;;;1.17;100.00
39341;BME280;25059;52.132;21.062;2023-02-02T17:56:56;100089.91;;;1.23;100.00
39341;BME280;25059;52.132;21.062;2023-02-02T17:59:40;100089.06;;;1.22;100.00
39341;BME280;25059;52.132;21.062;2023-02-02T18:02:25;100096.78;;;1.32;100.00
39341;BME280;25059;52.132;21.062;2023-02-02T18:05:10;100102.81;;;1.32;100.00
39341;BME280;25059;52.132;21.062;2023-02-02T18:07:55;100112.31;;;1.27;100.00
39341;BME280;25059;52.132;21.062;2023-02-02T18:10:40;100112.38;;;1.19;100.00
39341;BME280;25059;52.132;21.062;2023-02-02T18:13:25;100124.50;;;1.10;100.00
39341;BME280;25059;52.132;21.062;2023-02-02T18:16:11;100142.63;;;1.08;100.00
39341;BME280;25059;52.132;21.062;2023-02-02T18:18:56;100146.03;;;1.15;100.00
39341;BME280;25059;52.132;21.062;2023-02-02T18:21:41;100156.34;;;1.24;100.00
39341;BME280;25059;52.132;21.062;2023-02-02T18:24:26;100161.50;;;1.30;100.00
39341;BME280;25059;52.132;21.062;2023-02-02T18:27:10;100163.25;;;1.29;100.00
39341;BME280;25059;52.132;21.062;2023-02-02T18:29:55;100169.25;;;1.36;100.00
39341;BME280;25059;52.132;21.062;2023-02-02T18:32:40;100179.59;;;1.42;100.00
39341;BME280;25059;52.132;21.062;2023-02-02T18:35:25;100169.22;;;1.45;100.00
39341;BME280;25059;52.132;21.062;2023-02-02T18:38:10;100188.22;;;1.41;100.00
39341;BME280;25059;52.132;21.062;2023-02-02T18:40:56;100183.91;;;1.37;100.00
39341;BME280;25059;52.132;21.062;2023-02-02T18:43:40;100189.97;;;1.33;100.00
39341;BME280;25059;52.132;21.062;2023-02-02T18:46:25;100194.31;;;1.31;100.00
39341;BME280;25059;52.132;21.062;2023-02-02T18:49:10;100202.94;;;1.33;100.00
39341;BME280;25059;52.132;21.062;2023-02-02T18:51:55;100201.22;;;1.29;100.00
39341;BME280;25059;52.132;21.062;2023-02-02T18:54:39;100202.94;;;1.27;100.00
39341;BME280;25059;52.132;21.062;2023-02-02T18:57:24;100210.72;;;1.25;100.00
39341;BME280;25059;52.132;21.062;2023-02-02T19:00:10;100212.47;;;1.22;100.00
39341;BME280;25059;52.132;21.062;2023-02-02T19:02:55;100220.22;;;1.23;100.00
39341;BME280;25059;52.132;21.062;2023-02-02T19:05:39;100218.50;;;1.25;100.00
39341;BME280;25059;52.132;21.062;2023-02-02T19:08:44;100227.13;;;1.21;100.00
39341;BME280;25059;52.132;21.062;2023-02-02T19:11:37;100235.81;;;1.10;100.00
39341;BME280;25059;52.132;21.062;2023-02-02T19:14:28;100233.22;;;1.10;100.00
39341;BME280;25059;52.132;21.062;2023-02-02T19:20:02;100255.66;;;1.08;100.00
39341;BME280;25059;52.132;21.062;2023-02-02T19:23:00;100244.44;;;1.10;100.00
39341;BME280;25059;52.132;21.062;2023-02-02T19:25:48;100264.28;;;1.11;100.00
39341;BME280;25059;52.132;21.062;2023-02-02T19:28:33;100266.88;;;1.08;100.00
39341;BME280;25059;52.132;21.062;2023-02-02T19:31:18;100272.03;;;1.05;100.00
39341;BME280;25059;52.132;21.062;2023-02-02T19:34:09;100289.28;;;1.15;100.00
39341;BME280;25059;52.132;21.062;2023-02-02T19:36:55;100286.69;;;1.17;100.00
39341;BME280;25059;52.132;21.062;2023-02-02T19:39:39;100284.97;;;1.16;100.00
39341;BME280;25059;52.132;21.062;2023-02-02T19:42:24;100284.13;;;1.11;100.00
39341;BME280;25059;52.132;21.062;2023-02-02T19:45:30;100305.69;;;1.07;100.00
39341;BME280;25059;52.132;21.062;2023-02-02T19:48:18;100308.28;;;0.96;100.00
39341;BME280;25059;52.132;21.062;2023-02-02T19:51:25;100318.66;;;0.98;100.00
39341;BME280;25059;52.132;21.062;2023-02-02T19:54:32;100336.75;;;0.98;100.00
39341;BME280;25059;52.132;21.062;2023-02-02T19:57:23;100327.28;;;1.01;100.00
39341;BME280;25059;52.132;21.062;2023-02-02T20:00:17;100335.91;;;1.05;100.00
39341;BME280;25059;52.132;21.062;2023-02-02T20:06:22;100340.22;;;0.75;100.00
39341;BME280;25059;52.132;21.062;2023-02-02T20:09:15;100353.13;;;0.55;100.00
39341;BME280;25059;52.132;21.062;2023-02-02T20:12:14;100365.16;;;0.44;100.00
39341;BME280;25059;52.132;21.062;2023-02-02T20:15:00;100371.16;;;0.29;100.00
39341;BME280;25059;52.132;21.062;2023-02-02T20:17:45;100391.84;;;0.31;100.00
39341;BME280;25059;52.132;21.062;2023-02-02T20:20:38;100397.97;;;0.57;100.00
39341;BME280;25059;52.132;21.062;2023-02-02T20:23:43;100401.44;;;0.70;100.00
39341;BME280;25059;52.132;21.062;2023-02-02T20:26:32;100410.06;;;0.77;100.00
39341;BME280;25059;52.132;21.062;2023-02-02T20:29:25;100419.56;;;0.85;100.00
39341;BME280;25059;52.132;21.062;2023-02-02T20:32:17;100417.84;;;0.93;100.00
39341;BME280;25059;52.132;21.062;2023-02-02T20:38:27;100444.59;;;0.94;100.00
39341;BME280;25059;52.132;21.062;2023-02-02T20:41:13;100429.06;;;0.92;100.00
39341;BME280;25059;52.132;21.062;2023-02-02T20:43:58;100445.47;;;0.93;100.00
39341;BME280;25059;52.132;21.062;2023-02-02T20:46:43;100443.72;;;0.87;100.00
39341;BME280;25059;52.132;21.062;2023-02-02T20:49:29;100459.25;;;0.83;100.00
39341;BME280;25059;52.132;21.062;2023-02-02T20:52:17;100465.28;;;0.85;100.00
39341;BME280;25059;52.132;21.062;2023-02-02T20:55:07;100463.53;;;0.76;100.00
39341;BME280;25059;52.132;21.062;2023-02-02T20:57:51;100463.50;;;0.64;100.00
39341;BME280;25059;52.132;21.062;2023-02-02T21:00:37;100460.00;;;0.45;100.00
39341;BME280;25059;52.132;21.062;2023-02-02T21:03:21;100462.53;;;0.31;100.00
39341;BME280;25059;52.132;21.062;2023-02-02T21:06:06;100471.13;;;0.27;100.00
39341;BME280;25059;52.132;21.062;2023-02-02T21:08:51;100480.53;;;0.16;100.00
39341;BME280;25059;52.132;21.062;2023-02-02T21:11:36;100478.84;;;0.18;100.00
39341;BME280;25059;52.132;21.062;2023-02-02T21:14:21;100488.28;;;0.13;100.00
39341;BME280;25059;52.132;21.062;2023-02-02T21:17:06;100488.31;;;0.19;100.00
39341;BME280;25059;52.132;21.062;2023-02-02T21:19:51;100479.66;;;0.14;100.00
39341;BME280;25059;52.132;21.062;2023-02-02T21:22:35;100496.06;;;0.18;100.00
39341;BME280;25059;52.132;21.062;2023-02-02T21:25:20;100506.44;;;0.22;100.00
39341;BME280;25059;52.132;21.062;2023-02-02T21:28:04;100505.56;;;0.25;100.00
39341;BME280;25059;52.132;21.062;2023-02-02T21:30:49;100507.31;;;0.24;100.00
39341;BME280;25059;52.132;21.062;2023-02-02T21:33:33;100519.38;;;0.24;100.00
39341;BME280;25059;52.132;21.062;2023-02-02T21:42:14;100533.16;;;0.27;100.00
39341;BME280;25059;52.132;21.062;2023-02-02T21:48:06;100548.72;;;0.34;100.00
39341;BME280;25059;52.132;21.062;2023-02-02T21:51:21;100567.66;;;0.29;100.00
39341;BME280;25059;52.132;21.062;2023-02-02T21:54:22;100562.44;;;0.25;100.00
39341;BME280;25059;52.132;21.062;2023-02-02T21:57:15;100565.84;;;0.18;100.00
39341;BME280;25059;52.132;21.062;2023-02-02T22:00:11;100576.16;;;0.13;100.00
39341;BME280;25059;52.132;21.062;2023-02-02T22:03:00;100578.78;;;0.18;100.00
39341;BME280;25059;52.132;21.062;2023-02-02T22:05:45;100574.47;;;0.18;100.00
39341;BME280;25059;52.132;21.062;2023-02-02T22:08:33;100584.88;;;0.27;100.00
39341;BME280;25059;52.132;21.062;2023-02-02T22:11:26;100591.75;;;0.24;100.00
39341;BME280;25059;52.132;21.062;2023-02-02T22:14:18;100593.44;;;0.19;100.00
39341;BME280;25059;52.132;21.062;2023-02-02T22:17:39;100594.19;;;0.06;100.00
39341;BME280;25059;52.132;21.062;2023-02-02T22:20:31;100595.94;;;0.07;100.00
39341;BME280;25059;52.132;21.062;2023-02-02T22:23:20;100594.28;;;0.16;100.00
39341;BME280;25059;52.132;21.062;2023-02-02T22:26:18;100603.72;;;0.13;100.00
39341;BME280;25059;52.132;21.062;2023-02-02T22:29:11;100593.34;;;0.08;100.00
39341;BME280;25059;52.132;21.062;2023-02-02T22:31:58;100614.03;;;0.08;100.00
39341;BME280;25059;52.132;21.062;2023-02-02T22:34:42;100625.22;;;0.07;100.00
39341;BME280;25059;52.132;21.062;2023-02-02T22:37:27;100623.50;;;0.08;100.00
39341;BME280;25059;52.132;21.062;2023-02-02T22:40:12;100621.78;;;0.08;100.00
39341;BME280;25059;52.132;21.062;2023-02-02T22:43:01;100621.78;;;0.08;100.00
39341;BME280;25059;52.132;21.062;2023-02-02T22:45:46;100623.47;;;0.02;100.00
39341;BME280;25059;52.132;21.062;2023-02-02T22:48:31;100619.91;;;-0.11;100.00
39341;BME280;25059;52.132;21.062;2023-02-02T22:51:16;100628.50;;;-0.14;100.00
39341;BME280;25059;52.132;21.062;2023-02-02T22:54:00;100638.03;;;-0.07;100.00
39341;BME280;25059;52.132;21.062;2023-02-02T22:56:45;100637.13;;;-0.12;100.00
39341;BME280;25059;52.132;21.062;2023-02-02T22:59:29;100647.38;;;-0.21;100.00
39341;BME280;25059;52.132;21.062;2023-02-02T23:02:14;100648.25;;;-0.20;100.00
39341;BME280;25059;52.132;21.062;2023-02-02T23:04:59;100651.72;;;-0.15;100.00
39341;BME280;25059;52.132;21.062;2023-02-02T23:07:45;100650.91;;;-0.13;100.00
39341;BME280;25059;52.132;21.062;2023-02-02T23:10:29;100656.97;;;-0.09;100.00
39341;BME280;25059;52.132;21.062;2023-02-02T23:13:18;100658.72;;;-0.07;100.00
39341;BME280;25059;52.132;21.062;2023-02-02T23:16:04;100669.94;;;-0.02;100.00
39341;BME280;25059;52.132;21.062;2023-02-02T23:18:48;100674.25;;;-0.01;100.00
39341;BME280;25059;52.132;21.062;2023-02-02T23:21:33;100691.50;;;0.02;100.00
39341;BME280;25059;52.132;21.062;2023-02-02T23:24:17;100682.91;;;0.03;100.00
39341;BME280;25059;52.132;21.062;2023-02-02T23:27:01;100688.97;;;0.07;100.00
39341;BME280;25059;52.132;21.062;2023-02-02T23:29:47;100691.53;;;0.05;100.00
39341;BME280;25059;52.132;21.062;2023-02-02T23:32:31;100690.72;;;0.09;100.00
39341;BME280;25059;52.132;21.062;2023-02-02T23:35:15;100697.63;;;0.10;100.00
39341;BME280;25059;52.132;21.062;2023-02-02T23:38:00;100694.19;;;0.13;100.00
39341;BME280;25059;52.132;21.062;2023-02-02T23:40:45;100701.97;;;0.14;100.00
39341;BME280;25059;52.132;21.062;2023-02-02T23:43:29;100697.66;;;0.15;100.00
39341;BME280;25059;52.132;21.062;2023-02-02T23:46:15;100694.19;;;0.11;100.00
39341;BME280;25059;52.132;21.062;2023-02-02T23:49:00;100696.75;;;0.11;100.00
39341;BME280;25059;52.132;21.062;2023-02-02T23:51:44;100697.63;;;0.12;100.00